createdAt,value
2018-04-25T00:00:15.139Z,84.25
2018-04-25T00:01:15.049Z,84.53
2018-04-25T00:02:14.947Z,85.21
2018-04-25T00:03:14.848Z,85.68
2018-04-25T00:04:14.751Z,86.44
2018-04-25T00:05:14.648Z,86.44
2018-04-25T00:06:14.557Z,87.02
2018-04-25T00:07:14.454Z,87.02
2018-04-25T00:08:14.352Z,87.87
2018-04-25T00:09:14.259Z,87.68
2018-04-25T00:10:14.156Z,87.26
2018-04-25T00:11:14.066Z,87.07
2018-04-25T00:12:13.963Z,87.74
2018-04-25T00:13:13.872Z,87.64
2018-04-25T00:14:13.769Z,87.83
2018-04-25T00:15:13.677Z,88.12
2018-04-25T00:16:13.575Z,88.12
2018-04-25T00:17:13.472Z,88.88
2018-04-25T00:18:13.369Z,89.50
2018-04-25T00:19:13.276Z,89.36
2018-04-25T00:20:13.173Z,89.78
2018-04-25T00:21:13.083Z,90.31
2018-04-25T00:22:12.979Z,90.45
2018-04-25T00:23:12.888Z,90.41
2018-04-25T00:24:12.785Z,90.31
2018-04-25T00:25:12.685Z,90.98
2018-04-25T00:26:12.592Z,91.64
2018-04-25T00:27:12.488Z,91.36
2018-04-25T00:28:12.418Z,92.12
2018-04-25T00:29:12.292Z,92.32
2018-04-25T00:30:12.190Z,91.93
2018-04-25T00:31:12.102Z,92.50
2018-04-25T00:32:11.998Z,92.50
2018-04-25T00:33:11.905Z,93.22
2018-04-25T00:34:11.810Z,93.46
2018-04-25T00:35:11.711Z,93.17
2018-04-25T00:36:11.608Z,93.74
2018-04-25T00:37:11.505Z,93.65
2018-04-25T00:38:11.413Z,93.93
2018-04-25T00:39:11.310Z,94.27
2018-04-25T00:40:11.220Z,94.41
2018-04-25T00:41:11.118Z,94.56
2018-04-25T00:42:11.016Z,94.41
2018-04-25T00:43:10.922Z,94.70
2018-04-25T00:44:10.818Z,94.60
2018-04-25T00:45:10.728Z,95.08
2018-04-25T00:46:10.626Z,95.08
2018-04-25T00:47:10.533Z,95.27
2018-04-25T00:48:10.430Z,94.98
2018-04-25T00:49:10.328Z,95.32
2018-04-25T00:50:10.237Z,95.27
2018-04-25T00:51:10.133Z,95.56
2018-04-25T00:52:10.042Z,95.17
2018-04-25T00:53:09.939Z,95.17
2018-04-25T00:54:09.837Z,94.98
2018-04-25T00:55:09.745Z,95.22
2018-04-25T00:56:09.642Z,95.32
2018-04-25T00:57:09.550Z,95.32
2018-04-25T00:58:09.447Z,95.37
2018-04-25T00:59:09.357Z,96.22
2018-04-25T01:00:09.262Z,96.13
2018-04-25T01:01:09.162Z,95.37
2018-04-25T01:02:09.065Z,95.46
2018-04-25T01:03:08.955Z,95.46
2018-04-25T01:04:08.866Z,95.37
2018-04-25T01:05:09.062Z,95.56
2018-04-25T01:06:08.669Z,96.22
2018-04-25T01:07:08.568Z,95.79
2018-04-25T01:08:08.464Z,96.32
2018-04-25T01:09:08.374Z,96.13
2018-04-25T01:10:08.294Z,96.22
2018-04-25T01:11:08.178Z,96.32
2018-04-25T01:12:08.077Z,96.61
2018-04-25T01:13:07.984Z,96.46
2018-04-25T01:14:07.881Z,96.70
2018-04-25T01:15:07.778Z,96.13
2018-04-25T01:16:07.687Z,96.75
2018-04-25T01:17:07.586Z,96.70
2018-04-25T01:18:07.493Z,97.27
2018-04-25T01:19:07.391Z,96.80
2018-04-25T01:20:07.287Z,97.13
2018-04-25T01:21:07.195Z,97.32
2018-04-25T01:22:07.092Z,97.46
2018-04-25T01:23:07.003Z,97.56
2018-04-25T01:24:06.902Z,97.85
2018-04-25T01:25:06.807Z,97.71
2018-04-25T01:26:06.705Z,98.13
2018-04-25T01:27:06.601Z,98.03
2018-04-25T01:28:06.564Z,98.42
2018-04-25T01:29:06.407Z,98.94
2018-04-25T01:30:06.317Z,98.80
2018-04-25T01:31:06.212Z,98.80
2018-04-25T01:32:06.109Z,98.80
2018-04-25T01:33:06.018Z,98.80
2018-04-25T01:34:05.915Z,98.99
2018-04-25T01:35:05.823Z,99.18
2018-04-25T01:36:05.720Z,98.61
2018-04-25T01:37:05.631Z,98.80
2018-04-25T01:38:05.528Z,98.99
2018-04-25T01:39:05.424Z,99.18
2018-04-25T01:40:05.333Z,99.18
2018-04-25T01:41:05.229Z,98.90
2018-04-25T01:42:05.127Z,98.61
2018-04-25T01:43:05.035Z,98.70
2018-04-25T01:44:04.934Z,99.37
2018-04-25T01:45:05.095Z,99.18
2018-04-25T01:46:04.737Z,99.27
2018-04-25T01:47:04.635Z,99.37
2018-04-25T01:48:04.544Z,99.85
2018-04-25T01:49:04.452Z,99.85
2018-04-25T01:50:04.349Z,99.85
2018-04-25T01:51:04.245Z,99.99
2018-04-25T01:52:04.155Z,99.99
2018-04-25T01:53:04.051Z,99.99
2018-04-25T01:54:03.950Z,99.99
2018-04-25T01:55:03.857Z,99.99
2018-04-25T01:56:03.754Z,99.99
2018-04-25T01:57:03.664Z,99.99
2018-04-25T01:58:03.560Z,99.99
2018-04-25T01:59:03.457Z,99.99
2018-04-25T02:00:03.367Z,99.99
2018-04-25T02:01:03.262Z,99.99
2018-04-25T02:02:03.162Z,99.99
2018-04-25T02:03:03.069Z,99.99
2018-04-25T02:04:02.966Z,99.99
2018-04-25T02:05:02.874Z,99.99
2018-04-25T02:06:02.772Z,99.99
2018-04-25T02:07:02.681Z,99.99
2018-04-25T02:08:02.578Z,99.99
2018-04-25T02:09:02.474Z,99.99
2018-04-25T02:10:02.383Z,99.99
2018-04-25T02:11:02.279Z,99.99
2018-04-25T02:12:02.189Z,99.99
2018-04-25T02:13:02.086Z,99.99
2018-04-25T02:14:01.987Z,99.99
2018-04-25T02:15:01.891Z,99.99
2018-04-25T02:16:01.788Z,99.99
2018-04-25T02:17:01.697Z,99.99
2018-04-25T02:18:01.594Z,99.99
2018-04-25T02:19:01.491Z,99.99
2018-04-25T02:20:01.400Z,99.99
2018-04-25T02:21:01.300Z,99.99
2018-04-25T02:22:01.205Z,99.99
2018-04-25T02:23:01.102Z,99.99
2018-04-25T02:24:01.011Z,99.99
2018-04-25T02:25:00.907Z,99.99
2018-04-25T02:26:00.803Z,99.99
2018-04-25T02:27:00.719Z,99.99
2018-04-25T02:28:00.610Z,99.99
2018-04-25T02:29:00.519Z,99.99
2018-04-25T02:30:00.676Z,99.99
2018-04-25T02:31:00.313Z,99.99
2018-04-25T02:32:00.223Z,99.99
2018-04-25T02:33:00.120Z,99.99
2018-04-25T02:34:00.027Z,99.99
2018-04-25T02:34:59.925Z,99.99
2018-04-25T02:35:59.822Z,99.99
2018-04-25T02:36:59.732Z,99.99
2018-04-25T02:37:59.630Z,99.99
2018-04-25T02:38:59.549Z,99.99
2018-04-25T02:39:59.436Z,99.99
2018-04-25T02:40:59.331Z,99.99
2018-04-25T02:41:59.241Z,99.99
2018-04-25T02:42:59.138Z,99.99
2018-04-25T02:43:59.044Z,99.99
2018-04-25T02:44:58.941Z,99.99
2018-04-25T02:45:58.852Z,99.99
2018-04-25T02:46:58.748Z,99.99
2018-04-25T02:47:58.645Z,99.99
2018-04-25T02:48:58.554Z,99.99
2018-04-25T02:49:58.450Z,99.99
2018-04-25T02:50:58.360Z,99.99
2018-04-25T02:51:58.256Z,99.99
2018-04-25T02:52:58.153Z,99.99
2018-04-25T02:53:58.062Z,99.99
2018-04-25T02:54:57.964Z,99.99
2018-04-25T02:55:57.869Z,99.99
2018-04-25T02:56:57.766Z,99.99
2018-04-25T02:57:57.662Z,99.95
2018-04-25T02:58:57.675Z,99.66
2018-04-25T02:59:57.467Z,99.75
2018-04-25T03:00:57.377Z,99.95
2018-04-25T03:01:57.273Z,99.66
2018-04-25T03:02:57.184Z,99.99
2018-04-25T03:03:57.092Z,99.56
2018-04-25T03:04:56.976Z,98.90
2018-04-25T03:05:56.886Z,99.18
2018-04-25T03:06:56.783Z,99.56
2018-04-25T03:07:56.691Z,99.27
2018-04-25T03:08:56.588Z,99.18
2018-04-25T03:09:56.484Z,98.80
2018-04-25T03:10:56.394Z,98.99
2018-04-25T03:11:56.291Z,98.99
2018-04-25T03:12:56.198Z,99.75
2018-04-25T03:13:56.096Z,98.80
2018-04-25T03:14:55.993Z,99.18
2018-04-25T03:15:55.903Z,98.70
2018-04-25T03:16:55.908Z,98.42
2018-04-25T03:17:55.725Z,98.61
2018-04-25T03:18:55.604Z,98.61
2018-04-25T03:19:55.502Z,98.80
2018-04-25T03:20:55.411Z,98.61
2018-04-25T03:21:55.308Z,98.61
2018-04-25T03:22:55.215Z,98.61
2018-04-25T03:23:55.112Z,98.32
2018-04-25T03:24:55.091Z,98.61
2018-04-25T03:25:54.919Z,98.99
2018-04-25T03:26:54.815Z,98.61
2018-04-25T03:27:54.724Z,98.80
2018-04-25T03:28:54.621Z,98.90
2018-04-25T03:29:54.530Z,98.61
2018-04-25T03:30:54.427Z,97.85
2018-04-25T03:31:54.325Z,98.61
2018-04-25T03:32:54.235Z,98.42
2018-04-25T03:33:54.133Z,98.32
2018-04-25T03:34:54.040Z,98.32
2018-04-25T03:35:53.936Z,97.75
2018-04-25T03:36:53.833Z,98.22
2018-04-25T03:37:53.741Z,97.94
2018-04-25T03:38:53.638Z,98.22
2018-04-25T03:39:53.848Z,98.42
2018-04-25T03:40:53.443Z,97.37
2018-04-25T03:41:53.354Z,97.85
2018-04-25T03:42:53.249Z,97.27
2018-04-25T03:43:53.146Z,96.89
2018-04-25T03:44:53.057Z,97.08
2018-04-25T03:45:52.953Z,96.32
2018-04-25T03:46:52.863Z,96.51
2018-04-25T03:47:52.771Z,96.03
2018-04-25T03:48:52.658Z,96.08
2018-04-25T03:49:52.565Z,96.08
2018-04-25T03:50:52.465Z,96.13
2018-04-25T03:51:52.369Z,95.75
2018-04-25T03:52:52.267Z,95.75
2018-04-25T03:53:52.164Z,95.89
2018-04-25T03:54:52.073Z,95.51
2018-04-25T03:55:51.969Z,95.51
2018-04-25T03:56:51.878Z,95.03
2018-04-25T03:57:51.775Z,95.22
2018-04-25T03:58:51.685Z,95.51
2018-04-25T03:59:51.581Z,94.84
2018-04-25T04:00:51.477Z,94.93
2018-04-25T04:01:51.400Z,94.46
2018-04-25T04:02:51.282Z,95.22
2018-04-25T04:03:51.192Z,94.56
2018-04-25T04:04:51.090Z,94.89
2018-04-25T04:05:50.986Z,94.98
2018-04-25T04:06:50.894Z,95.03
2018-04-25T04:07:50.790Z,95.70
2018-04-25T04:08:50.701Z,95.41
2018-04-25T04:09:50.598Z,95.79
2018-04-25T04:10:50.505Z,95.75
2018-04-25T04:11:50.402Z,96.46
2018-04-25T04:12:50.300Z,96.46
2018-04-25T04:13:50.209Z,96.56
2018-04-25T04:14:50.106Z,97.27
2018-04-25T04:15:50.014Z,97.08
2018-04-25T04:16:49.915Z,97.75
2018-04-25T04:17:49.809Z,97.56
2018-04-25T04:18:49.718Z,96.98
2018-04-25T04:19:49.614Z,97.37
2018-04-25T04:20:49.523Z,97.32
2018-04-25T04:21:49.421Z,96.89
2018-04-25T04:22:49.317Z,97.13
2018-04-25T04:23:49.225Z,97.42
2018-04-25T04:24:49.186Z,97.08
2018-04-25T04:25:49.031Z,96.75
2018-04-25T04:26:48.929Z,96.70
2018-04-25T04:27:48.827Z,96.56
2018-04-25T04:28:48.738Z,97.32
2018-04-25T04:29:48.931Z,97.42
2018-04-25T04:30:48.542Z,96.56
2018-04-25T04:31:48.450Z,96.75
2018-04-25T04:32:48.347Z,96.37
2018-04-25T04:33:48.244Z,95.51
2018-04-25T04:34:48.141Z,95.79
2018-04-25T04:35:48.049Z,95.61
2018-04-25T04:36:47.946Z,95.61
2018-04-25T04:37:47.855Z,95.41
2018-04-25T04:38:47.752Z,95.22
2018-04-25T04:39:47.648Z,94.84
2018-04-25T04:40:47.557Z,95.22
2018-04-25T04:41:47.458Z,95.61
2018-04-25T04:42:47.364Z,95.41
2018-04-25T04:43:47.260Z,95.61
2018-04-25T04:44:47.169Z,94.84
2018-04-25T04:45:47.065Z,95.03
2018-04-25T04:46:46.962Z,94.56
2018-04-25T04:47:46.873Z,94.36
2018-04-25T04:48:46.769Z,95.22
2018-04-25T04:49:46.677Z,95.03
2018-04-25T04:50:46.574Z,94.56
2018-04-25T04:51:46.471Z,94.56
2018-04-25T04:52:46.381Z,94.46
2018-04-25T04:53:46.277Z,94.36
2018-04-25T04:54:46.185Z,94.74
2018-04-25T04:55:46.082Z,94.65
2018-04-25T04:56:45.993Z,93.60
2018-04-25T04:57:45.890Z,93.88
2018-04-25T04:58:45.786Z,93.79
2018-04-25T04:59:46.022Z,93.60
2018-04-25T05:00:45.604Z,93.98
2018-04-25T05:01:45.501Z,93.02
2018-04-25T05:02:45.398Z,94.07
2018-04-25T05:03:45.307Z,93.98
2018-04-25T05:04:45.203Z,93.12
2018-04-25T05:05:45.099Z,93.02
2018-04-25T05:06:45.012Z,92.88
2018-04-25T05:07:44.906Z,92.41
2018-04-25T05:08:44.880Z,92.02
2018-04-25T05:09:44.711Z,91.55
2018-04-25T05:10:44.625Z,91.55
2018-04-25T05:11:44.518Z,91.45
2018-04-25T05:12:44.414Z,90.97
2018-04-25T05:13:44.323Z,90.69
2018-04-25T05:14:44.232Z,90.88
2018-04-25T05:15:44.130Z,91.07
2018-04-25T05:16:44.026Z,90.11
2018-04-25T05:17:43.948Z,89.73
2018-04-25T05:18:43.832Z,89.83
2018-04-25T05:19:43.743Z,90.40
2018-04-25T05:20:43.637Z,91.11
2018-04-25T05:21:43.535Z,90.40
2018-04-25T05:22:43.444Z,90.21
2018-04-25T05:23:43.341Z,90.02
2018-04-25T05:24:43.262Z,89.92
2018-04-25T05:25:43.147Z,89.54
2018-04-25T05:26:43.054Z,89.16
2018-04-25T05:27:42.951Z,89.06
2018-04-25T05:28:42.862Z,89.06
2018-04-25T05:29:42.757Z,89.16
2018-04-25T05:30:42.666Z,88.97
2018-04-25T05:31:42.563Z,88.97
2018-04-25T05:32:42.474Z,89.54
2018-04-25T05:33:42.370Z,89.35
2018-04-25T05:34:42.284Z,88.97
2018-04-25T05:35:42.175Z,88.59
2018-04-25T05:36:42.074Z,89.11
2018-04-25T05:37:41.983Z,89.68
2018-04-25T05:38:41.941Z,90.64
2018-04-25T05:39:41.799Z,91.02
2018-04-25T05:40:41.684Z,90.40
2018-04-25T05:41:41.593Z,91.16
2018-04-25T05:42:41.493Z,91.26
2018-04-25T05:43:41.398Z,91.26
2018-04-25T05:44:41.296Z,91.55
2018-04-25T05:45:41.205Z,92.41
2018-04-25T05:46:41.101Z,91.74
2018-04-25T05:47:41.010Z,92.12
2018-04-25T05:48:40.907Z,91.55
2018-04-25T05:49:40.806Z,91.55
2018-04-25T05:50:40.714Z,92.02
2018-04-25T05:51:40.658Z,92.26
2018-04-25T05:52:40.532Z,92.83
2018-04-25T05:53:40.428Z,92.74
2018-04-25T05:54:40.328Z,92.16
2018-04-25T05:55:40.222Z,92.26
2018-04-25T05:56:40.130Z,92.64
2018-04-25T05:57:40.027Z,92.74
2018-04-25T05:58:39.937Z,93.02
2018-04-25T05:59:40.082Z,93.41
2018-04-25T06:00:39.740Z,93.02
2018-04-25T06:01:39.638Z,92.79
2018-04-25T06:02:39.537Z,92.12
2018-04-25T06:03:39.450Z,92.21
2018-04-25T06:04:39.341Z,91.74
2018-04-25T06:05:39.249Z,91.78
2018-04-25T06:06:39.148Z,91.59
2018-04-25T06:07:39.056Z,91.59
2018-04-25T06:08:38.952Z,90.92
2018-04-25T06:09:38.860Z,90.83
2018-04-25T06:10:38.758Z,90.25
2018-04-25T06:11:38.671Z,91.11
2018-04-25T06:12:38.581Z,90.16
2018-04-25T06:13:38.475Z,90.16
2018-04-25T06:14:38.371Z,90.45
2018-04-25T06:15:38.280Z,89.78
2018-04-25T06:16:38.177Z,89.59
2018-04-25T06:17:38.074Z,89.97
2018-04-25T06:18:37.988Z,90.16
2018-04-25T06:19:38.129Z,90.06
2018-04-25T06:20:37.790Z,89.87
2018-04-25T06:21:37.689Z,89.30
2018-04-25T06:22:37.593Z,89.49
2018-04-25T06:23:37.490Z,89.49
2018-04-25T06:24:37.409Z,89.39
2018-04-25T06:25:37.303Z,89.59
2018-04-25T06:26:37.214Z,89.39
2018-04-25T06:27:37.104Z,89.78
2018-04-25T06:28:37.015Z,88.92
2018-04-25T06:29:36.910Z,88.82
2018-04-25T06:30:36.807Z,88.44
2018-04-25T06:31:36.715Z,88.82
2018-04-25T06:32:36.611Z,88.44
2018-04-25T06:33:36.521Z,88.73
2018-04-25T06:34:36.418Z,87.96
2018-04-25T06:35:36.326Z,87.96
2018-04-25T06:36:36.224Z,87.48
2018-04-25T06:37:36.137Z,87.29
2018-04-25T06:38:36.034Z,87.77
2018-04-25T06:39:35.943Z,87.87
2018-04-25T06:40:35.837Z,86.86
2018-04-25T06:41:35.748Z,87.48
2018-04-25T06:42:35.640Z,85.62
2018-04-25T06:43:35.550Z,86.76
2018-04-25T06:44:35.446Z,85.90
2018-04-25T06:45:35.355Z,85.90
2018-04-25T06:46:35.256Z,84.76
2018-04-25T06:47:35.161Z,84.76
2018-04-25T06:48:35.058Z,85.24
2018-04-25T06:49:34.956Z,85.05
2018-04-25T06:50:34.912Z,85.33
2018-04-25T06:51:34.788Z,85.24
2018-04-25T06:52:34.669Z,84.85
2018-04-25T06:53:34.567Z,85.42
2018-04-25T06:54:34.476Z,85.81
2018-04-25T06:55:34.373Z,84.76
2018-04-25T06:56:34.281Z,85.14
2018-04-25T06:57:34.178Z,84.76
2018-04-25T06:58:34.088Z,85.24
2018-04-25T06:59:33.984Z,84.85
2018-04-25T07:00:33.892Z,84.47
2018-04-25T07:01:33.789Z,84.85
2018-04-25T07:02:33.698Z,84.76
2018-04-25T07:03:33.595Z,85.42
2018-04-25T07:04:33.519Z,84.85
2018-04-25T07:05:33.401Z,84.66
2018-04-25T07:06:33.310Z,84.56
2018-04-25T07:07:33.239Z,84.56
2018-04-25T07:08:33.117Z,84.38
2018-04-25T07:09:33.013Z,84.19
2018-04-25T07:10:32.923Z,84.38
2018-04-25T07:11:32.819Z,83.70
2018-04-25T07:12:32.727Z,84.85
2018-04-25T07:13:32.626Z,84.19
2018-04-25T07:14:32.533Z,83.61
2018-04-25T07:15:32.431Z,84.19
2018-04-25T07:16:32.340Z,82.75
2018-04-25T07:17:32.235Z,83.90
2018-04-25T07:18:32.145Z,83.99
2018-04-25T07:19:32.044Z,83.70
2018-04-25T07:20:31.953Z,83.70
2018-04-25T07:21:31.849Z,83.33
2018-04-25T07:22:31.758Z,83.04
2018-04-25T07:23:31.654Z,83.42
2018-04-25T07:24:31.563Z,83.42
2018-04-25T07:25:31.460Z,81.99
2018-04-25T07:26:31.370Z,82.60
2018-04-25T07:27:31.266Z,83.13
2018-04-25T07:28:31.177Z,82.65
2018-04-25T07:29:31.114Z,82.03
2018-04-25T07:30:30.981Z,82.98
2018-04-25T07:31:30.878Z,82.51
2018-04-25T07:32:30.787Z,81.36
2018-04-25T07:33:30.684Z,81.65
2018-04-25T07:34:30.593Z,82.60
2018-04-25T07:35:30.494Z,82.03
2018-04-25T07:36:30.412Z,81.45
2018-04-25T07:37:30.295Z,82.12
2018-04-25T07:38:30.206Z,81.36
2018-04-25T07:39:30.102Z,81.26
2018-04-25T07:40:30.010Z,82.12
2018-04-25T07:41:29.910Z,81.36
2018-04-25T07:42:29.818Z,80.98
2018-04-25T07:43:29.713Z,81.16
2018-04-25T07:44:29.623Z,81.26
2018-04-25T07:45:29.532Z,80.98
2018-04-25T07:46:29.428Z,81.45
2018-04-25T07:47:29.325Z,80.30
2018-04-25T07:48:29.234Z,81.26
2018-04-25T07:49:29.130Z,80.59
2018-04-25T07:50:29.041Z,80.30
2018-04-25T07:51:28.938Z,80.35
2018-04-25T07:52:28.845Z,80.35
2018-04-25T07:53:28.742Z,80.16
2018-04-25T07:54:28.652Z,79.68
2018-04-25T07:55:28.549Z,80.16
2018-04-25T07:56:28.457Z,79.96
2018-04-25T07:57:28.354Z,79.77
2018-04-25T07:58:28.264Z,79.58
2018-04-25T07:59:28.161Z,80.16
2018-04-25T08:00:28.074Z,79.58
2018-04-25T08:01:27.967Z,79.58
2018-04-25T08:02:27.875Z,79.77
2018-04-25T08:03:27.789Z,79.14
2018-04-25T08:04:27.681Z,78.95
2018-04-25T08:05:27.591Z,79.47
2018-04-25T08:06:27.489Z,78.42
2018-04-25T08:07:27.395Z,78.80
2018-04-25T08:08:27.292Z,78.84
2018-04-25T08:09:27.202Z,78.36
2018-04-25T08:10:27.099Z,78.07
2018-04-25T08:11:27.007Z,77.73
2018-04-25T08:12:26.985Z,77.34
2018-04-25T08:13:26.813Z,77.15
2018-04-25T08:14:26.723Z,76.52
2018-04-25T08:15:26.621Z,76.71
2018-04-25T08:16:26.533Z,76.52
2018-04-25T08:17:26.440Z,76.52
2018-04-25T08:18:26.333Z,76.23
2018-04-25T08:19:26.244Z,76.23
2018-04-25T08:20:26.154Z,76.71
2018-04-25T08:21:26.049Z,76.32
2018-04-25T08:22:25.958Z,76.32
2018-04-25T08:23:25.867Z,75.85
2018-04-25T08:24:25.764Z,75.37
2018-04-25T08:25:25.678Z,75.85
2018-04-25T08:26:25.583Z,75.04
2018-04-25T08:27:25.479Z,75.46
2018-04-25T08:28:25.390Z,75.65
2018-04-25T08:29:25.297Z,74.79
2018-04-25T08:30:25.195Z,75.71
2018-04-25T08:31:25.182Z,76.10
2018-04-25T08:32:25.013Z,75.52
2018-04-25T08:33:24.967Z,76.00
2018-04-25T08:34:24.822Z,75.62
2018-04-25T08:35:24.729Z,76.29
2018-04-25T08:36:24.638Z,75.81
2018-04-25T08:37:24.534Z,76.10
2018-04-25T08:38:24.449Z,75.43
2018-04-25T08:39:24.353Z,76.19
2018-04-25T08:40:24.261Z,75.43
2018-04-25T08:41:24.160Z,75.27
2018-04-25T08:42:24.069Z,75.65
2018-04-25T08:43:23.989Z,75.56
2018-04-25T08:44:23.873Z,75.56
2018-04-25T08:45:23.783Z,75.18
2018-04-25T08:46:23.692Z,74.51
2018-04-25T08:47:23.589Z,75.12
2018-04-25T08:48:23.497Z,75.60
2018-04-25T08:49:23.408Z,74.73
2018-04-25T08:50:23.317Z,74.73
2018-04-25T08:51:23.213Z,73.81
2018-04-25T08:52:23.122Z,74.58
2018-04-25T08:53:23.032Z,74.01
2018-04-25T08:54:22.940Z,73.62
2018-04-25T08:55:22.836Z,73.56
2018-04-25T08:56:22.748Z,73.27
2018-04-25T08:57:22.655Z,73.41
2018-04-25T08:58:22.566Z,72.58
2018-04-25T08:59:22.462Z,72.29
2018-04-25T09:00:22.370Z,72.25
2018-04-25T09:01:22.280Z,72.19
2018-04-25T09:02:22.202Z,72.38
2018-04-25T09:03:22.099Z,71.71
2018-04-25T09:04:21.995Z,72.38
2018-04-25T09:05:21.904Z,71.75
2018-04-25T09:06:21.813Z,71.75
2018-04-25T09:07:21.723Z,70.47
2018-04-25T09:08:21.631Z,69.57
2018-04-25T09:09:21.539Z,67.85
2018-04-25T09:10:21.438Z,66.85
2018-04-25T09:11:21.347Z,65.24
2018-04-25T09:12:21.268Z,64.21
2018-04-25T09:13:21.165Z,62.50
2018-04-25T09:14:21.073Z,62.79
2018-04-25T09:15:20.986Z,64.63
2018-04-25T09:16:20.892Z,61.66
2018-04-25T09:17:20.801Z,60.67
2018-04-25T09:18:20.710Z,60.64
2018-04-25T09:19:20.621Z,62.92
2018-04-25T09:20:20.570Z,64.37
2018-04-25T09:21:20.454Z,63.24
2018-04-25T09:22:20.359Z,61.34
2018-04-25T09:23:20.268Z,60.76
2018-04-25T09:24:20.179Z,60.72
2018-04-25T09:25:20.090Z,57.34
2018-04-25T09:26:20.008Z,58.47
2018-04-25T09:27:19.918Z,61.89
2018-04-25T09:28:19.827Z,61.96
2018-04-25T09:29:19.736Z,63.09
2018-04-25T09:30:19.645Z,63.54
2018-04-25T09:31:19.579Z,65.37
2018-04-25T09:32:19.483Z,62.70
2018-04-25T09:33:19.384Z,59.63
2018-04-25T09:34:19.295Z,59.86
2018-04-25T09:35:19.216Z,57.12
2018-04-25T09:36:19.126Z,57.84
2018-04-25T09:37:19.039Z,59.00
2018-04-25T09:38:18.943Z,59.89
2018-04-25T09:39:18.866Z,60.73
2018-04-25T09:40:18.775Z,63.40
2018-04-25T09:41:18.684Z,63.57
2018-04-25T09:42:18.593Z,63.85
2018-04-25T09:43:18.516Z,63.63
2018-04-25T09:44:18.424Z,64.28
2018-04-25T09:45:18.334Z,65.11
2018-04-25T09:46:18.244Z,66.36
2018-04-25T09:47:18.164Z,65.72
2018-04-25T09:48:18.074Z,64.86
2018-04-25T09:49:17.982Z,64.79
2018-04-25T09:50:17.893Z,63.28
2018-04-25T09:51:17.815Z,63.95
2018-04-25T09:52:17.722Z,63.54
2018-04-25T09:53:17.633Z,63.98
2018-04-25T09:54:17.541Z,64.28
2018-04-25T09:55:17.451Z,64.82
2018-04-25T09:56:17.373Z,65.30
2018-04-25T09:57:17.298Z,65.20
2018-04-25T09:58:17.191Z,65.69
2018-04-25T09:59:17.104Z,66.46
2018-04-25T10:00:17.010Z,65.98
2018-04-25T10:01:16.918Z,64.63
2018-04-25T10:02:16.828Z,65.11
2018-04-25T10:03:16.749Z,64.34
2018-04-25T10:04:16.658Z,65.14
2018-04-25T10:05:16.568Z,63.34
2018-04-25T10:06:16.476Z,60.19
2018-04-25T10:07:16.387Z,60.77
2018-04-25T10:08:16.295Z,61.83
2018-04-25T10:09:16.207Z,61.22
2018-04-25T10:10:16.117Z,63.06
2018-04-25T10:11:16.035Z,62.09
2018-04-25T10:12:15.945Z,61.93
2018-04-25T10:13:15.853Z,61.80
2018-04-25T10:14:15.767Z,61.83
2018-04-25T10:15:15.685Z,59.86
2018-04-25T10:16:15.588Z,60.48
2018-04-25T10:17:15.587Z,58.42
2018-04-25T10:18:15.413Z,56.35
2018-04-25T10:19:15.322Z,54.77
2018-04-25T10:20:15.230Z,55.83
2018-04-25T10:21:15.140Z,54.87
2018-04-25T10:22:15.049Z,56.58
2018-04-25T10:23:14.972Z,57.78
2018-04-25T10:24:14.881Z,59.87
2018-04-25T10:25:14.790Z,61.90
2018-04-25T10:26:14.698Z,61.77
2018-04-25T10:27:14.617Z,62.73
2018-04-25T10:28:14.531Z,63.28
2018-04-25T10:29:14.443Z,63.73
2018-04-25T10:30:14.350Z,64.05
2018-04-25T10:31:14.259Z,64.98
2018-04-25T10:32:14.167Z,65.27
2018-04-25T10:33:14.088Z,65.94
2018-04-25T10:34:13.998Z,65.37
2018-04-25T10:35:13.907Z,66.04
2018-04-25T10:36:13.817Z,66.30
2018-04-25T10:37:13.724Z,66.71
2018-04-25T10:38:13.638Z,65.05
2018-04-25T10:39:13.556Z,63.98
2018-04-25T10:40:13.465Z,64.79
2018-04-25T10:41:13.376Z,63.44
2018-04-25T10:42:13.283Z,63.79
2018-04-25T10:43:13.192Z,63.60
2018-04-25T10:44:13.104Z,64.25
2018-04-25T10:45:13.069Z,64.63
2018-04-25T10:46:12.919Z,65.56
2018-04-25T10:47:12.828Z,65.66
2018-04-25T10:48:12.742Z,66.30
2018-04-25T10:49:12.648Z,66.49
2018-04-25T10:50:12.569Z,67.13
2018-04-25T10:51:12.478Z,67.71
2018-04-25T10:52:12.388Z,67.68
2018-04-25T10:53:12.296Z,67.96
2018-04-25T10:54:12.206Z,68.83
2018-04-25T10:55:12.129Z,68.15
2018-04-25T10:56:12.024Z,68.70
2018-04-25T10:57:11.933Z,68.73
2018-04-25T10:58:11.844Z,69.85
2018-04-25T10:59:11.751Z,71.19
2018-04-25T11:00:11.663Z,70.43
2018-04-25T11:01:11.569Z,70.29
2018-04-25T11:02:11.480Z,71.51
2018-04-25T11:03:11.388Z,71.37
2018-04-25T11:04:11.285Z,70.90
2018-04-25T11:05:11.195Z,72.11
2018-04-25T11:06:11.104Z,72.64
2018-04-25T11:07:11.014Z,70.79
2018-04-25T11:08:10.934Z,72.77
2018-04-25T11:09:10.832Z,72.00
2018-04-25T11:10:10.739Z,72.77
2018-04-25T11:11:10.636Z,73.50
2018-04-25T11:12:10.546Z,73.94
2018-04-25T11:13:10.478Z,75.37
2018-04-25T11:14:10.366Z,78.05
2018-04-25T11:15:10.273Z,78.78
2018-04-25T11:16:10.175Z,80.11
2018-04-25T11:17:10.080Z,82.31
2018-04-25T11:18:10.001Z,83.65
2018-04-25T11:19:09.885Z,84.38
2018-04-25T11:20:09.794Z,85.62
2018-04-25T11:21:09.702Z,86.29
2018-04-25T11:22:09.609Z,87.62
2018-04-25T11:23:09.509Z,88.20
2018-04-25T11:24:09.418Z,87.91
2018-04-25T11:25:09.313Z,88.20
2018-04-25T11:26:09.224Z,88.48
2018-04-25T11:27:09.132Z,88.48
2018-04-25T11:28:09.030Z,88.68
2018-04-25T11:29:08.939Z,88.15
2018-04-25T11:30:08.835Z,87.29
2018-04-25T11:31:08.743Z,87.09
2018-04-25T11:32:08.641Z,86.33
2018-04-25T11:33:08.551Z,86.80
2018-04-25T11:34:08.447Z,87.00
2018-04-25T11:35:08.358Z,86.61
2018-04-25T11:36:08.265Z,85.57
2018-04-25T11:37:08.164Z,84.61
2018-04-25T11:38:08.070Z,85.03
2018-04-25T11:39:07.970Z,83.60
2018-04-25T11:40:07.881Z,84.55
2018-04-25T11:41:07.773Z,83.89
2018-04-25T11:42:07.682Z,83.31
2018-04-25T11:43:07.580Z,82.93
2018-04-25T11:44:07.488Z,82.40
2018-04-25T11:45:07.397Z,81.82
2018-04-25T11:46:07.294Z,81.82
2018-04-25T11:47:07.299Z,81.25
2018-04-25T11:48:07.102Z,80.52
2018-04-25T11:49:07.023Z,81.67
2018-04-25T11:50:06.907Z,79.85
2018-04-25T11:51:06.816Z,80.04
2018-04-25T11:52:06.724Z,81.29
2018-04-25T11:53:06.620Z,79.28
2018-04-25T11:54:06.531Z,79.47
2018-04-25T11:55:06.439Z,78.22
2018-04-25T11:56:06.336Z,78.32
2018-04-25T11:57:06.247Z,81.29
2018-04-25T11:58:06.145Z,78.99
2018-04-25T11:59:06.051Z,78.70
2018-04-25T12:00:05.963Z,78.70
2018-04-25T12:01:05.858Z,78.70
2018-04-25T12:02:05.765Z,78.03
2018-04-25T12:03:05.675Z,78.22
2018-04-25T12:04:05.573Z,78.80
2018-04-25T12:05:05.570Z,77.65
2018-04-25T12:06:05.378Z,77.75
2018-04-25T12:07:05.287Z,79.47
2018-04-25T12:08:05.196Z,78.27
2018-04-25T12:09:05.093Z,77.59
2018-04-25T12:10:05.004Z,77.50
2018-04-25T12:11:04.911Z,76.64
2018-04-25T12:12:04.818Z,76.82
2018-04-25T12:13:04.766Z,76.25
2018-04-25T12:14:04.615Z,77.11
2018-04-25T12:15:04.531Z,75.33
2018-04-25T12:16:04.433Z,74.85
2018-04-25T12:17:04.334Z,76.19
2018-04-25T12:18:04.240Z,74.76
2018-04-25T12:19:04.136Z,74.37
2018-04-25T12:20:04.045Z,75.18
2018-04-25T12:21:03.953Z,76.62
2018-04-25T12:22:03.862Z,74.51
2018-04-25T12:23:03.759Z,76.07
2018-04-25T12:24:03.668Z,75.02
2018-04-25T12:25:03.570Z,74.93
2018-04-25T12:26:03.474Z,73.52
2018-04-25T12:27:03.383Z,74.58
2018-04-25T12:28:03.280Z,75.54
2018-04-25T12:29:03.189Z,74.68
2018-04-25T12:30:03.086Z,73.33
2018-04-25T12:31:02.994Z,73.43
2018-04-25T12:32:02.905Z,73.20
2018-04-25T12:33:02.802Z,74.73
2018-04-25T12:34:02.715Z,74.79
2018-04-25T12:35:02.621Z,74.22
2018-04-25T12:36:02.530Z,73.55
2018-04-25T12:37:02.426Z,73.35
2018-04-25T12:38:02.404Z,75.04
2018-04-25T12:39:02.245Z,73.32
2018-04-25T12:40:02.141Z,73.57
2018-04-25T12:41:02.049Z,74.62
2018-04-25T12:42:01.966Z,74.62
2018-04-25T12:43:01.857Z,74.43
2018-04-25T12:44:01.765Z,74.27
2018-04-25T12:45:01.676Z,73.61
2018-04-25T12:46:01.583Z,73.57
2018-04-25T12:47:01.480Z,72.99
2018-04-25T12:48:01.403Z,72.90
2018-04-25T12:49:01.299Z,74.05
2018-04-25T12:50:01.196Z,73.66
2018-04-25T12:51:01.104Z,73.70